sensor_id;sensor_type;location;lat;lon;timestamp;pressure;altitude;pressure_sealevel;temperature;humidity
5879;BME280;2965;42.640;23.370;2023-12-20T04:02:21;94644.31;;;-1.12;100.00
5879;BME280;2965;42.640;23.370;2023-12-20T04:04:46;94648.78;;;-1.03;100.00
5879;BME280;2965;42.640;23.370;2023-12-20T04:07:11;94647.81;;;-1.13;100.00
5879;BME280;2965;42.640;23.370;2023-12-20T04:09:37;94651.31;;;-1.14;100.00
5879;BME280;2965;42.640;23.370;2023-12-20T04:12:03;94640.59;;;-1.08;100.00
5879;BME280;2965;42.640;23.370;2023-12-20T04:14:28;94626.16;;;-0.98;100.00
5879;BME280;2965;42.640;23.370;2023-12-20T04:16:54;94626.72;;;-1.06;100.00
5879;BME280;2965;42.640;23.370;2023-12-20T04:19:19;94624.97;;;-1.05;100.00
5879;BME280;2965;42.640;23.370;2023-12-20T04:21:45;94628.84;;;-0.99;100.00
5879;BME280;2965;42.640;23.370;2023-12-20T04:24:10;94631.53;;;-1.01;100.00
5879;BME280;2965;42.640;23.370;2023-12-20T04:26:35;94627.16;;;-0.88;100.00
5879;BME280;2965;42.640;23.370;2023-12-20T04:29:01;94632.63;;;-1.16;100.00
5879;BME280;2965;42.640;23.370;2023-12-20T04:31:26;94618.22;;;-1.06;100.00
5879;BME280;2965;42.640;23.370;2023-12-20T04:33:52;94604.69;;;-0.97;100.00
5879;BME280;2965;42.640;23.370;2023-12-20T04:36:17;94606.59;;;-0.88;100.00
5879;BME280;2965;42.640;23.370;2023-12-20T04:38:43;94595.94;;;-0.94;100.00
5879;BME280;2965;42.640;23.370;2023-12-20T04:41:08;94595.38;;;-0.87;100.00
5879;BME280;2965;42.640;23.370;2023-12-20T04:43:34;94605.25;;;-1.05;100.00
5879;BME280;2965;42.640;23.370;2023-12-20T04:45:59;94610.50;;;-1.06;100.00
5879;BME280;2965;42.640;23.370;2023-12-20T04:48:24;94594.03;;;-1.04;100.00
5879;BME280;2965;42.640;23.370;2023-12-20T04:50:50;94593.38;;;-0.94;100.00
5879;BME280;2965;42.640;23.370;2023-12-20T04:53:15;94605.16;;;-1.27;100.00
5879;BME280;2965;42.640;23.370;2023-12-20T04:55:40;94601.00;;;-1.41;100.00
5879;BME280;2965;42.640;23.370;2023-12-20T04:58:06;94603.72;;;-1.31;100.00
5879;BME280;2965;42.640;23.370;2023-12-20T05:00:31;94599.41;;;-1.31;100.00
5879;BME280;2965;42.640;23.370;2023-12-20T05:02:57;94601.66;;;-1.26;100.00
5879;BME280;2965;42.640;23.370;2023-12-20T05:05:22;94606.19;;;-1.30;100.00
5879;BME280;2965;42.640;23.370;2023-12-20T05:07:48;94600.84;;;-1.27;100.00
5879;BME280;2965;42.640;23.370;2023-12-20T05:10:13;94593.13;;;-1.27;100.00
5879;BME280;2965;42.640;23.370;2023-12-20T05:12:39;94598.97;;;-1.24;100.00
5879;BME280;2965;42.640;23.370;2023-12-20T05:15:06;94598.28;;;-1.50;100.00
5879;BME280;2965;42.640;23.370;2023-12-20T05:17:33;94599.31;;;-1.53;100.00
5879;BME280;2965;42.640;23.370;2023-12-20T05:19:58;94596.66;;;-1.64;100.00
5879;BME280;2965;42.640;23.370;2023-12-20T05:22:23;94595.44;;;-1.59;100.00
5879;BME280;2965;42.640;23.370;2023-12-20T05:24:49;94582.69;;;-1.60;100.00
5879;BME280;2965;42.640;23.370;2023-12-20T05:27:14;94593.91;;;-2.23;100.00
5879;BME280;2965;42.640;23.370;2023-12-20T05:29:40;94576.25;;;-2.03;100.00
5879;BME280;2965;42.640;23.370;2023-12-20T05:32:05;94582.53;;;-2.07;100.00
5879;BME280;2965;42.640;23.370;2023-12-20T05:34:31;94579.03;;;-2.18;100.00
5879;BME280;2965;42.640;23.370;2023-12-20T05:36:58;94583.84;;;-2.01;100.00
5879;BME280;2965;42.640;23.370;2023-12-20T05:39:23;94580.59;;;-2.16;100.00
5879;BME280;2965;42.640;23.370;2023-12-20T05:41:49;94578.72;;;-2.14;100.00
5879;BME280;2965;42.640;23.370;2023-12-20T05:44:14;94577.28;;;-2.18;100.00
5879;BME280;2965;42.640;23.370;2023-12-20T05:46:40;94579.34;;;-2.10;100.00
5879;BME280;2965;42.640;23.370;2023-12-20T05:49:06;94574.63;;;-2.04;100.00
5879;BME280;2965;42.640;23.370;2023-12-20T06:20:01;94564.22;;;-2.64;100.00
5879;BME280;2965;42.640;23.370;2023-12-20T06:22:26;94574.81;;;-3.21;100.00
5879;BME280;2965;42.640;23.370;2023-12-20T06:24:52;94578.63;;;-3.14;100.00
5879;BME280;2965;42.640;23.370;2023-12-20T06:27:17;94565.81;;;-3.14;100.00
5879;BME280;2965;42.640;23.370;2023-12-20T06:29:42;94575.00;;;-3.24;100.00
5879;BME280;2965;42.640;23.370;2023-12-20T06:32:10;94574.09;;;-3.11;100.00
5879;BME280;2965;42.640;23.370;2023-12-20T06:34:35;94566.19;;;-3.20;100.00
5879;BME280;2965;42.640;23.370;2023-12-20T07:40:36;94507.38;;;-1.24;100.00
5879;BME280;2965;42.640;23.370;2023-12-20T07:43:02;94512.00;;;-1.05;100.00
5879;BME280;2965;42.640;23.370;2023-12-20T07:45:28;94506.78;;;-0.92;100.00
5879;BME280;2965;42.640;23.370;2023-12-20T07:47:53;94495.13;;;-0.74;100.00
5879;BME280;2965;42.640;23.370;2023-12-20T07:50:18;94488.19;;;-0.96;100.00
5879;BME280;2965;42.640;23.370;2023-12-20T07:52:44;94487.97;;;-0.82;100.00
5879;BME280;2965;42.640;23.370;2023-12-20T07:55:09;94498.03;;;-0.56;100.00
5879;BME280;2965;42.640;23.370;2023-12-20T07:57:35;94500.59;;;-0.67;100.00
5879;BME280;2965;42.640;23.370;2023-12-20T08:00:00;94494.78;;;-0.47;100.00
5879;BME280;2965;42.640;23.370;2023-12-20T08:02:26;94493.38;;;-0.40;100.00
5879;BME280;2965;42.640;23.370;2023-12-20T08:04:51;94500.13;;;-0.16;100.00
5879;BME280;2965;42.640;23.370;2023-12-20T08:07:16;94489.03;;;-0.17;100.00
5879;BME280;2965;42.640;23.370;2023-12-20T08:09:42;94481.19;;;-0.15;100.00
5879;BME280;2965;42.640;23.370;2023-12-20T08:12:08;94481.19;;;-0.04;100.00
5879;BME280;2965;42.640;23.370;2023-12-20T08:14:34;94472.38;;;0.10;100.00
5879;BME280;2965;42.640;23.370;2023-12-20T08:17:00;94476.47;;;0.12;100.00
5879;BME280;2965;42.640;23.370;2023-12-20T08:19:25;94472.97;;;0.02;100.00
5879;BME280;2965;42.640;23.370;2023-12-20T08:21:51;94468.78;;;-0.10;100.00
5879;BME280;2965;42.640;23.370;2023-12-20T08:24:16;94464.75;;;0.19;100.00
5879;BME280;2965;42.640;23.370;2023-12-20T08:26:42;94469.84;;;0.31;100.00
5879;BME280;2965;42.640;23.370;2023-12-20T08:29:07;94473.56;;;0.49;100.00
5879;BME280;2965;42.640;23.370;2023-12-20T08:31:33;94468.16;;;0.73;100.00
5879;BME280;2965;42.640;23.370;2023-12-20T08:33:58;94456.22;;;0.51;100.00
5879;BME280;2965;42.640;23.370;2023-12-20T08:36:24;94448.13;;;0.23;100.00
5879;BME280;2965;42.640;23.370;2023-12-20T08:38:49;94440.09;;;0.49;100.00
5879;BME280;2965;42.640;23.370;2023-12-20T08:41:16;94440.47;;;0.65;100.00
5879;BME280;2965;42.640;23.370;2023-12-20T08:43:42;94443.09;;;0.54;100.00
5879;BME280;2965;42.640;23.370;2023-12-20T08:46:08;94438.31;;;0.70;100.00
5879;BME280;2965;42.640;23.370;2023-12-20T08:48:35;94442.97;;;0.77;100.00
5879;BME280;2965;42.640;23.370;2023-12-20T08:51:01;94431.94;;;0.86;100.00
5879;BME280;2965;42.640;23.370;2023-12-20T08:53:26;94446.69;;;0.84;100.00
5879;BME280;2965;42.640;23.370;2023-12-20T08:55:52;94440.41;;;0.97;100.00
5879;BME280;2965;42.640;23.370;2023-12-20T08:58:17;94429.78;;;0.91;100.00
5879;BME280;2965;42.640;23.370;2023-12-20T09:49:51;94307.25;;;1.29;100.00
5879;BME280;2965;42.640;23.370;2023-12-20T09:52:18;94297.44;;;1.32;100.00
5879;BME280;2965;42.640;23.370;2023-12-20T09:54:43;94301.31;;;1.57;100.00
5879;BME280;2965;42.640;23.370;2023-12-20T09:57:10;94296.31;;;1.65;100.00
5879;BME280;2965;42.640;23.370;2023-12-20T09:59:35;94294.97;;;2.00;100.00
5879;BME280;2965;42.640;23.370;2023-12-20T10:02:01;94289.16;;;2.55;100.00
5879;BME280;2965;42.640;23.370;2023-12-20T10:04:31;94291.34;;;2.87;100.00
5879;BME280;2965;42.640;23.370;2023-12-20T10:07:02;94289.47;;;3.16;100.00
5879;BME280;2965;42.640;23.370;2023-12-20T10:09:30;94276.44;;;3.08;100.00
5879;BME280;2965;42.640;23.370;2023-12-20T10:11:57;94261.53;;;3.02;100.00
5879;BME280;2965;42.640;23.370;2023-12-20T10:14:23;94259.16;;;3.36;100.00
5879;BME280;2965;42.640;23.370;2023-12-20T10:16:49;94267.53;;;3.66;100.00
5879;BME280;2965;42.640;23.370;2023-12-20T10:19:16;94270.13;;;3.84;100.00
5879;BME280;2965;42.640;23.370;2023-12-20T10:21:42;94259.78;;;3.84;100.00
5879;BME280;2965;42.640;23.370;2023-12-20T10:24:08;94260.94;;;4.07;100.00
5879;BME280;2965;42.640;23.370;2023-12-20T10:26:33;94256.56;;;4.25;100.00
5879;BME280;2965;42.640;23.370;2023-12-20T10:29:03;94238.28;;;4.53;100.00
5879;BME280;2965;42.640;23.370;2023-12-20T10:31:32;94242.28;;;4.73;100.00
5879;BME280;2965;42.640;23.370;2023-12-20T10:33:59;94259.09;;;5.03;100.00
5879;BME280;2965;42.640;23.370;2023-12-20T10:36:27;94245.06;;;5.81;100.00
5879;BME280;2965;42.640;23.370;2023-12-20T10:38:53;94247.03;;;6.28;100.00
5879;BME280;2965;42.640;23.370;2023-12-20T10:41:25;94233.25;;;6.44;100.00
5879;BME280;2965;42.640;23.370;2023-12-20T10:43:52;94214.25;;;6.99;100.00
5879;BME280;2965;42.640;23.370;2023-12-20T10:46:19;94214.66;;;7.50;100.00
5879;BME280;2965;42.640;23.370;2023-12-20T10:48:45;94231.59;;;7.46;100.00
5879;BME280;2965;42.640;23.370;2023-12-20T10:51:13;94223.53;;;7.32;100.00
5879;BME280;2965;42.640;23.370;2023-12-20T10:53:42;94210.63;;;7.08;100.00
5879;BME280;2965;42.640;23.370;2023-12-20T10:56:08;94221.63;;;6.87;100.00
5879;BME280;2965;42.640;23.370;2023-12-20T10:58:41;94210.44;;;6.70;100.00
5879;BME280;2965;42.640;23.370;2023-12-20T11:01:08;94204.25;;;6.71;100.00
5879;BME280;2965;42.640;23.370;2023-12-20T11:03:35;94200.81;;;6.87;100.00
5879;BME280;2965;42.640;23.370;2023-12-20T11:06:33;94198.06;;;6.80;100.00
5879;BME280;2965;42.640;23.370;2023-12-20T11:09:04;94200.44;;;6.51;100.00
5879;BME280;2965;42.640;23.370;2023-12-20T11:11:59;94184.56;;;6.21;100.00
5879;BME280;2965;42.640;23.370;2023-12-20T11:15:02;94186.44;;;6.52;100.00
5879;BME280;2965;42.640;23.370;2023-12-20T11:17:29;94179.28;;;6.54;100.00
5879;BME280;2965;42.640;23.370;2023-12-20T11:22:25;94155.38;;;6.67;100.00
5879;BME280;2965;42.640;23.370;2023-12-20T11:24:52;94171.19;;;6.49;100.00
5879;BME280;2965;42.640;23.370;2023-12-20T11:27:19;94158.06;;;6.81;100.00
5879;BME280;2965;42.640;23.370;2023-12-20T11:29:58;94152.44;;;7.09;100.00
5879;BME280;2965;42.640;23.370;2023-12-20T11:34:53;94127.44;;;7.92;100.00
5879;BME280;2965;42.640;23.370;2023-12-20T11:37:19;94125.72;;;8.22;100.00
5879;BME280;2965;42.640;23.370;2023-12-20T11:39:45;94126.13;;;7.96;100.00
5879;BME280;2965;42.640;23.370;2023-12-20T11:42:19;94120.25;;;7.79;100.00
5879;BME280;2965;42.640;23.370;2023-12-20T11:44:45;94114.47;;;7.46;100.00
5879;BME280;2965;42.640;23.370;2023-12-20T11:47:12;94119.81;;;7.75;100.00
5879;BME280;2965;42.640;23.370;2023-12-20T11:49:39;94110.41;;;8.42;100.00
5879;BME280;2965;42.640;23.370;2023-12-20T11:52:05;94098.25;;;8.19;100.00
5879;BME280;2965;42.640;23.370;2023-12-20T11:54:31;94099.28;;;8.10;100.00
5879;BME280;2965;42.640;23.370;2023-12-20T11:56:56;94091.34;;;8.56;100.00
5879;BME280;2965;42.640;23.370;2023-12-20T11:59:21;94087.72;;;8.27;100.00
5879;BME280;2965;42.640;23.370;2023-12-20T12:01:48;94078.38;;;8.33;100.00
5879;BME280;2965;42.640;23.370;2023-12-20T12:04:14;94069.94;;;8.16;100.00
5879;BME280;2965;42.640;23.370;2023-12-20T12:06:40;94070.19;;;8.21;100.00
5879;BME280;2965;42.640;23.370;2023-12-20T12:09:06;94063.38;;;8.20;100.00
5879;BME280;2965;42.640;23.370;2023-12-20T12:11:32;94062.13;;;8.16;100.00
5879;BME280;2965;42.640;23.370;2023-12-20T12:34:39;94029.13;;;9.04;100.00
5879;BME280;2965;42.640;23.370;2023-12-20T12:37:05;94030.94;;;9.74;98.73
5879;BME280;2965;42.640;23.370;2023-12-20T12:39:30;94025.88;;;10.29;94.24
5879;BME280;2965;42.640;23.370;2023-12-20T12:41:57;94022.97;;;10.52;90.78
5879;BME280;2965;42.640;23.370;2023-12-20T12:44:22;94015.69;;;10.41;89.55
5879;BME280;2965;42.640;23.370;2023-12-20T12:46:51;94016.59;;;9.92;89.75
5879;BME280;2965;42.640;23.370;2023-12-20T12:49:19;94011.72;;;9.32;95.84
5879;BME280;2965;42.640;23.370;2023-12-20T12:51:44;94012.94;;;9.37;96.57
5879;BME280;2965;42.640;23.370;2023-12-20T12:54:10;94024.19;;;9.86;93.54
5879;BME280;2965;42.640;23.370;2023-12-20T12:56:38;94021.06;;;9.98;92.63
5879;BME280;2965;42.640;23.370;2023-12-20T12:59:04;94010.31;;;10.14;91.77
5879;BME280;2965;42.640;23.370;2023-12-20T13:01:31;94012.22;;;9.99;92.09
5879;BME280;2965;42.640;23.370;2023-12-20T13:03:56;94014.22;;;9.97;92.10
5879;BME280;2965;42.640;23.370;2023-12-20T13:06:26;94031.03;;;9.88;90.91
5879;BME280;2965;42.640;23.370;2023-12-20T13:08:51;94025.41;;;9.34;93.10
5879;BME280;2965;42.640;23.370;2023-12-20T13:11:17;94016.50;;;8.86;97.25
5879;BME280;2965;42.640;23.370;2023-12-20T13:13:42;94015.19;;;8.31;100.00
5879;BME280;2965;42.640;23.370;2023-12-20T13:16:07;94020.16;;;8.11;100.00
5879;BME280;2965;42.640;23.370;2023-12-20T13:18:33;94015.38;;;7.70;100.00
5879;BME280;2965;42.640;23.370;2023-12-20T13:20:58;94013.53;;;7.56;100.00
5879;BME280;2965;42.640;23.370;2023-12-20T14:12:32;93965.97;;;5.29;100.00
5879;BME280;2965;42.640;23.370;2023-12-20T14:15:01;93970.22;;;5.06;100.00
5879;BME280;2965;42.640;23.370;2023-12-20T14:17:26;93973.75;;;4.56;100.00
5879;BME280;2965;42.640;23.370;2023-12-20T14:19:52;93970.19;;;4.73;100.00
5879;BME280;2965;42.640;23.370;2023-12-20T14:22:19;93960.78;;;4.40;100.00
5879;BME280;2965;42.640;23.370;2023-12-20T14:24:45;93957.00;;;3.75;100.00
5879;BME280;2965;42.640;23.370;2023-12-20T14:27:11;93954.22;;;3.69;100.00
5879;BME280;2965;42.640;23.370;2023-12-20T14:29:37;93955.50;;;3.99;100.00
5879;BME280;2965;42.640;23.370;2023-12-20T14:32:03;93955.72;;;4.22;100.00
5879;BME280;2965;42.640;23.370;2023-12-20T14:34:29;93948.44;;;4.34;100.00
5879;BME280;2965;42.640;23.370;2023-12-20T14:36:55;93973.56;;;3.91;100.00
5879;BME280;2965;42.640;23.370;2023-12-20T14:39:20;93978.00;;;4.15;100.00
5879;BME280;2965;42.640;23.370;2023-12-20T14:41:46;93966.78;;;3.90;100.00
5879;BME280;2965;42.640;23.370;2023-12-20T14:44:11;93946.50;;;3.77;100.00
5879;BME280;2965;42.640;23.370;2023-12-20T14:46:37;93953.22;;;3.62;100.00
5879;BME280;2965;42.640;23.370;2023-12-20T14:49:04;93960.34;;;3.34;100.00
5879;BME280;2965;42.640;23.370;2023-12-20T14:51:29;93960.63;;;3.57;100.00
5879;BME280;2965;42.640;23.370;2023-12-20T14:53:55;93972.84;;;3.80;100.00
5879;BME280;2965;42.640;23.370;2023-12-20T14:56:20;93977.22;;;3.80;100.00
5879;BME280;2965;42.640;23.370;2023-12-20T14:58:48;93982.59;;;3.87;100.00
5879;BME280;2965;42.640;23.370;2023-12-20T15:01:13;93967.94;;;3.61;100.00
5879;BME280;2965;42.640;23.370;2023-12-20T15:03:39;93955.19;;;3.34;100.00
5879;BME280;2965;42.640;23.370;2023-12-20T15:06:05;93957.47;;;3.37;100.00
5879;BME280;2965;42.640;23.370;2023-12-20T15:08:31;93969.38;;;3.29;100.00
5879;BME280;2965;42.640;23.370;2023-12-20T15:10:57;93974.31;;;3.23;100.00
5879;BME280;2965;42.640;23.370;2023-12-20T15:13:22;93985.69;;;2.68;100.00
5879;BME280;2965;42.640;23.370;2023-12-20T15:15:48;93974.47;;;2.77;100.00
5879;BME280;2965;42.640;23.370;2023-12-20T15:18:13;93977.22;;;2.40;100.00
5879;BME280;2965;42.640;23.370;2023-12-20T15:20:39;93973.69;;;2.41;100.00
5879;BME280;2965;42.640;23.370;2023-12-20T15:23:04;93966.34;;;2.19;100.00
5879;BME280;2965;42.640;23.370;2023-12-20T15:25:31;93964.53;;;1.84;100.00
5879;BME280;2965;42.640;23.370;2023-12-20T15:27:57;93962.94;;;2.00;100.00
5879;BME280;2965;42.640;23.370;2023-12-20T15:30:22;93975.81;;;1.83;100.00
5879;BME280;2965;42.640;23.370;2023-12-20T15:32:52;93964.53;;;1.84;100.00
5879;BME280;2965;42.640;23.370;2023-12-20T15:35:18;93967.38;;;2.08;100.00
5879;BME280;2965;42.640;23.370;2023-12-20T15:37:43;93968.91;;;1.73;100.00
5879;BME280;2965;42.640;23.370;2023-12-20T15:40:10;93951.81;;;1.72;100.00
5879;BME280;2965;42.640;23.370;2023-12-20T15:42:39;93973.16;;;1.92;100.00
5879;BME280;2965;42.640;23.370;2023-12-20T15:45:06;93971.88;;;1.51;100.00
5879;BME280;2965;42.640;23.370;2023-12-20T15:47:34;93953.56;;;1.72;100.00
5879;BME280;2965;42.640;23.370;2023-12-20T15:50:01;93965.66;;;1.71;100.00
5879;BME280;2965;42.640;23.370;2023-12-20T15:52:26;93963.34;;;1.78;100.00
5879;BME280;2965;42.640;23.370;2023-12-20T15:54:52;93970.38;;;1.76;100.00
5879;BME280;2965;42.640;23.370;2023-12-20T15:57:17;93976.75;;;1.82;100.00
5879;BME280;2965;42.640;23.370;2023-12-20T15:59:43;93977.59;;;1.72;100.00
5879;BME280;2965;42.640;23.370;2023-12-20T16:02:08;93976.94;;;1.33;100.00
5879;BME280;2965;42.640;23.370;2023-12-20T16:04:34;93965.91;;;1.41;100.00
5879;BME280;2965;42.640;23.370;2023-12-20T16:38:01;93941.97;;;1.86;100.00
5879;BME280;2965;42.640;23.370;2023-12-20T16:40:26;93956.50;;;1.87;100.00
5879;BME280;2965;42.640;23.370;2023-12-20T16:42:52;93950.59;;;1.94;100.00
5879;BME280;2965;42.640;23.370;2023-12-20T16:45:20;93944.81;;;2.10;100.00
5879;BME280;2965;42.640;23.370;2023-12-20T16:47:46;93949.44;;;2.07;100.00
5879;BME280;2965;42.640;23.370;2023-12-20T16:50:11;93944.28;;;2.07;100.00
5879;BME280;2965;42.640;23.370;2023-12-20T16:52:37;93946.38;;;1.75;100.00
5879;BME280;2965;42.640;23.370;2023-12-20T16:55:04;93932.47;;;1.59;100.00
5879;BME280;2965;42.640;23.370;2023-12-20T16:57:30;93941.91;;;1.03;100.00
5879;BME280;2965;42.640;23.370;2023-12-20T16:59:57;93935.41;;;0.99;100.00
5879;BME280;2965;42.640;23.370;2023-12-20T17:02:22;93933.88;;;1.06;100.00
5879;BME280;2965;42.640;23.370;2023-12-20T17:04:48;93938.50;;;1.03;100.00
5879;BME280;2965;42.640;23.370;2023-12-20T17:07:14;93935.38;;;1.09;100.00
5879;BME280;2965;42.640;23.370;2023-12-20T17:09:39;93924.91;;;1.10;100.00
5879;BME280;2965;42.640;23.370;2023-12-20T17:12:06;93946.00;;;0.86;100.00
5879;BME280;2965;42.640;23.370;2023-12-20T17:14:33;93929.97;;;1.02;100.00
5879;BME280;2965;42.640;23.370;2023-12-20T17:16:58;93933.28;;;1.22;100.00
5879;BME280;2965;42.640;23.370;2023-12-20T17:19:24;93941.28;;;1.19;100.00
5879;BME280;2965;42.640;23.370;2023-12-20T17:21:49;93941.38;;;1.37;100.00
5879;BME280;2965;42.640;23.370;2023-12-20T17:24:17;93944.13;;;1.25;100.00
5879;BME280;2965;42.640;23.370;2023-12-20T17:26:43;93959.38;;;1.09;100.00
5879;BME280;2965;42.640;23.370;2023-12-20T17:29:08;93944.94;;;1.26;100.00
5879;BME280;2965;42.640;23.370;2023-12-20T17:31:33;93950.88;;;1.36;100.00
5879;BME280;2965;42.640;23.370;2023-12-20T17:34:00;93946.59;;;1.17;100.00
5879;BME280;2965;42.640;23.370;2023-12-20T17:36:26;93953.38;;;1.18;100.00
5879;BME280;2965;42.640;23.370;2023-12-20T17:38:51;93963.16;;;1.05;100.00
5879;BME280;2965;42.640;23.370;2023-12-20T17:41:16;93955.16;;;1.08;100.00
5879;BME280;2965;42.640;23.370;2023-12-20T17:43:42;93966.22;;;0.52;100.00
5879;BME280;2965;42.640;23.370;2023-12-20T17:46:08;93961.34;;;0.68;100.00
5879;BME280;2965;42.640;23.370;2023-12-20T17:48:34;93959.03;;;0.65;100.00
5879;BME280;2965;42.640;23.370;2023-12-20T17:51:00;93945.63;;;0.71;100.00
5879;BME280;2965;42.640;23.370;2023-12-20T17:53:25;93943.03;;;0.71;100.00
5879;BME280;2965;42.640;23.370;2023-12-20T17:55:50;93950.88;;;0.80;100.00
5879;BME280;2965;42.640;23.370;2023-12-20T17:58:16;93954.81;;;0.93;100.00
5879;BME280;2965;42.640;23.370;2023-12-20T18:00:41;93949.91;;;1.00;100.00
5879;BME280;2965;42.640;23.370;2023-12-20T18:03:07;93959.16;;;0.73;100.00
5879;BME280;2965;42.640;23.370;2023-12-20T18:05:32;93956.31;;;0.47;100.00
5879;BME280;2965;42.640;23.370;2023-12-20T18:07:58;93963.44;;;-0.05;100.00
5879;BME280;2965;42.640;23.370;2023-12-20T18:10:23;93965.91;;;0.07;100.00
5879;BME280;2965;42.640;23.370;2023-12-20T18:12:49;93968.09;;;0.11;100.00
5879;BME280;2965;42.640;23.370;2023-12-20T18:15:15;93965.66;;;0.29;100.00
5879;BME280;2965;42.640;23.370;2023-12-20T18:17:41;93978.28;;;0.42;100.00
5879;BME280;2965;42.640;23.370;2023-12-20T18:20:07;93974.63;;;0.44;100.00
5879;BME280;2965;42.640;23.370;2023-12-20T18:22:34;93972.56;;;0.29;100.00
5879;BME280;2965;42.640;23.370;2023-12-20T18:24:59;93988.81;;;0.39;100.00
5879;BME280;2965;42.640;23.370;2023-12-20T18:27:25;93979.72;;;0.15;100.00
5879;BME280;2965;42.640;23.370;2023-12-20T18:29:52;93969.94;;;-0.01;100.00
5879;BME280;2965;42.640;23.370;2023-12-20T18:32:18;93965.09;;;-0.04;100.00
5879;BME280;2965;42.640;23.370;2023-12-20T18:34:45;93956.97;;;0.01;100.00
5879;BME280;2965;42.640;23.370;2023-12-20T18:37:10;93955.63;;;0.07;100.00
5879;BME280;2965;42.640;23.370;2023-12-20T18:39:39;93942.34;;;0.11;100.00
5879;BME280;2965;42.640;23.370;2023-12-20T18:42:07;93938.72;;;0.23;100.00
5879;BME280;2965;42.640;23.370;2023-12-20T18:44:33;93954.00;;;0.15;100.00
5879;BME280;2965;42.640;23.370;2023-12-20T18:46:59;93945.34;;;0.07;100.00
5879;BME280;2965;42.640;23.370;2023-12-20T18:49:24;93945.00;;;-0.19;100.00
5879;BME280;2965;42.640;23.370;2023-12-20T18:51:50;93942.91;;;0.05;100.00
5879;BME280;2965;42.640;23.370;2023-12-20T18:54:15;93951.28;;;0.07;100.00
5879;BME280;2965;42.640;23.370;2023-12-20T18:56:42;93944.81;;;0.22;100.00
5879;BME280;2965;42.640;23.370;2023-12-20T18:59:08;93948.72;;;0.27;100.00
5879;BME280;2965;42.640;23.370;2023-12-20T19:01:34;93955.34;;;0.00;100.00
5879;BME280;2965;42.640;23.370;2023-12-20T19:03:59;93945.28;;;-0.22;100.00
5879;BME280;2965;42.640;23.370;2023-12-20T19:06:25;93963.44;;;-0.05;100.00
5879;BME280;2965;42.640;23.370;2023-12-20T19:08:50;93958.59;;;0.02;100.00
5879;BME280;2965;42.640;23.370;2023-12-20T19:11:18;93952.78;;;0.10;100.00
5879;BME280;2965;42.640;23.370;2023-12-20T19:13:44;93956.44;;;0.27;100.00
5879;BME280;2965;42.640;23.370;2023-12-20T19:16:10;93956.81;;;-0.17;100.00
5879;BME280;2965;42.640;23.370;2023-12-20T19:18:35;93957.63;;;-0.07;100.00
5879;BME280;2965;42.640;23.370;2023-12-20T19:21:00;93968.75;;;0.04;100.00
5879;BME280;2965;42.640;23.370;2023-12-20T19:23:28;93977.66;;;-0.10;100.00
5879;BME280;2965;42.640;23.370;2023-12-20T19:25:54;93971.13;;;-0.14;100.00
5879;BME280;2965;42.640;23.370;2023-12-20T19:28:19;93968.56;;;-0.14;100.00
5879;BME280;2965;42.640;23.370;2023-12-20T19:30:45;93956.66;;;-0.15;100.00
5879;BME280;2965;42.640;23.370;2023-12-20T19:33:11;93958.28;;;-0.14;100.00
5879;BME280;2965;42.640;23.370;2023-12-20T19:35:36;93958.28;;;-0.14;100.00
5879;BME280;2965;42.640;23.370;2023-12-20T19:38:02;93952.06;;;-0.12;100.00
5879;BME280;2965;42.640;23.370;2023-12-20T19:40:27;93964.53;;;0.03;100.00
5879;BME280;2965;42.640;23.370;2023-12-20T19:42:52;93946.00;;;0.09;100.00
5879;BME280;2965;42.640;23.370;2023-12-20T19:45:18;93962.56;;;-0.44;100.00
5879;BME280;2965;42.640;23.370;2023-12-20T19:47:50;93956.94;;;-0.59;100.00
5879;BME280;2965;42.640;23.370;2023-12-20T19:50:16;93958.94;;;-0.62;100.00
5879;BME280;2965;42.640;23.370;2023-12-20T19:52:42;93955.09;;;-0.78;100.00
5879;BME280;2965;42.640;23.370;2023-12-20T19:55:19;93960.66;;;-0.72;100.00
5879;BME280;2965;42.640;23.370;2023-12-20T19:57:47;93957.91;;;-0.50;100.00
5879;BME280;2965;42.640;23.370;2023-12-20T20:00:13;93962.56;;;-0.44;100.00
5879;BME280;2965;42.640;23.370;2023-12-20T20:02:38;93956.31;;;-0.41;100.00
5879;BME280;2965;42.640;23.370;2023-12-20T20:05:06;93958.78;;;-0.40;100.00
5879;BME280;2965;42.640;23.370;2023-12-20T20:07:33;93974.44;;;-0.43;100.00
5879;BME280;2965;42.640;23.370;2023-12-20T20:10:01;93959.97;;;-0.44;100.00
5879;BME280;2965;42.640;23.370;2023-12-20T20:12:27;93955.69;;;-0.64;100.00
5879;BME280;2965;42.640;23.370;2023-12-20T20:14:55;93950.56;;;-0.64;100.00
5879;BME280;2965;42.640;23.370;2023-12-20T20:17:20;93954.63;;;-0.62;100.00
5879;BME280;2965;42.640;23.370;2023-12-20T20:19:46;93941.44;;;-0.47;100.00
5879;BME280;2965;42.640;23.370;2023-12-20T20:22:11;93938.91;;;-0.28;100.00
5879;BME280;2965;42.640;23.370;2023-12-20T20:24:37;93953.72;;;-0.51;100.00
5879;BME280;2965;42.640;23.370;2023-12-20T20:27:03;93952.16;;;-0.73;100.00
5879;BME280;2965;42.640;23.370;2023-12-20T20:29:29;93951.25;;;-0.93;100.00
5879;BME280;2965;42.640;23.370;2023-12-20T20:31:54;93947.25;;;-0.76;100.00
5879;BME280;2965;42.640;23.370;2023-12-20T20:34:20;93942.50;;;-0.50;100.00
5879;BME280;2965;42.640;23.370;2023-12-20T20:36:49;93942.25;;;-0.37;100.00
5879;BME280;2965;42.640;23.370;2023-12-20T20:39:14;93935.19;;;-0.45;100.00
5879;BME280;2965;42.640;23.370;2023-12-20T20:41:41;93940.09;;;-0.42;100.00
5879;BME280;2965;42.640;23.370;2023-12-20T20:44:06;93940.91;;;-0.32;100.00
5879;BME280;2965;42.640;23.370;2023-12-20T20:46:33;93936.72;;;-0.42;100.00
5879;BME280;2965;42.640;23.370;2023-12-20T20:49:02;93938.72;;;-0.46;100.00
5879;BME280;2965;42.640;23.370;2023-12-20T20:51:27;93939.50;;;-0.55;100.00
5879;BME280;2965;42.640;23.370;2023-12-20T20:53:56;93934.94;;;-0.42;100.00
5879;BME280;2965;42.640;23.370;2023-12-20T20:56:21;93937.63;;;-0.53;100.00
5879;BME280;2965;42.640;23.370;2023-12-20T20:58:46;93928.59;;;-0.47;100.00
5879;BME280;2965;42.640;23.370;2023-12-20T21:01:12;93945.47;;;-0.45;100.00
5879;BME280;2965;42.640;23.370;2023-12-20T21:03:38;93941.84;;;-0.83;100.00
5879;BME280;2965;42.640;23.370;2023-12-20T21:06:04;93936.16;;;-0.77;100.00
5879;BME280;2965;42.640;23.370;2023-12-20T21:08:30;93953.44;;;-0.88;100.00
5879;BME280;2965;42.640;23.370;2023-12-20T21:10:55;93952.97;;;-0.72;100.00